PWSweather.com
Personal Weather Stations
Station Observations
KCAOCEAN4
Jeffries Ranch, Oceanside, CA 92057

Jeffries RanchOceanside, CA 92057

Lat: 33.24433789, Lon: -117.25337219

Elevation: 207

Station Type: Davis Vantage Vue

jeffriesranchweather.com

High Low Average
Temperature 77.9°F25.5°C 63.0°F17.2°C 68.2°F20.1°C
Dew Point 66.7°F19.3°C 60.6°F15.9°C 63.2°F17.3°C
Winds 8.1 mph 13.0 kmh Calm Calm 2.0 mph S3.2 kmh S
Wind Gusts 14.1 mph22.7 kmh -- 4.0 mph6.4 kmh
Humidity 94% 68% 84%
Pressure 29.88 in1011.9 mb 29.76 in1007.8 mb -
Precipitation 0.00 in0.0 mm - -
Hour Temp Dew Point Humidity Winds Wind Gusts Pressure Precip Precip Rate Daily Precip Total
12:03 AM 65.8°F18.8°C 63.1°F17.3°C 91% Calm Calm -- 29.83 in1010.2 mb 0.00 in0.0 mm 0.00 in0.0 mm 0.00 in0.0 mm
12:13 AM 65.8°F18.8°C 63.1°F17.3°C 91% Calm Calm -- 29.83 in1010.2 mb 0.00 in0.0 mm 0.00 in0.0 mm 0.00 in0.0 mm
12:23 AM 66.0°F18.9°C 63.3°F17.4°C 91% Calm Calm -- 29.83 in1010.2 mb 0.00 in0.0 mm 0.00 in0.0 mm 0.00 in0.0 mm
12:33 AM 66.0°F18.9°C 63.3°F17.4°C 91% Calm Calm -- 29.83 in1010.2 mb 0.00 in0.0 mm 0.00 in0.0 mm 0.00 in0.0 mm
12:43 AM 65.8°F18.8°C 63.1°F17.3°C 91% Calm Calm -- 29.83 in1010.2 mb 0.00 in0.0 mm 0.00 in0.0 mm 0.00 in0.0 mm
12:53 AM 66.0°F18.9°C 63.3°F17.4°C 91% Calm Calm -- 29.83 in1010.2 mb 0.00 in0.0 mm 0.00 in0.0 mm 0.00 in0.0 mm
01:03 AM 65.7°F18.7°C 63.0°F17.2°C 91% Calm Calm -- 29.83 in1010.2 mb 0.00 in0.0 mm 0.00 in0.0 mm 0.00 in0.0 mm
01:13 AM 65.5°F18.6°C 62.8°F17.1°C 91% Calm Calm -- 29.83 in1010.2 mb 0.00 in0.0 mm 0.00 in0.0 mm 0.00 in0.0 mm
01:23 AM 65.1°F18.4°C 62.4°F16.9°C 91% Calm Calm -- 29.82 in1009.8 mb 0.00 in0.0 mm 0.00 in0.0 mm 0.00 in0.0 mm
01:33 AM 64.9°F18.3°C 62.2°F16.8°C 91% Calm Calm -- 29.82 in1009.8 mb 0.00 in0.0 mm 0.00 in0.0 mm 0.00 in0.0 mm
01:43 AM 64.8°F18.2°C 62.1°F16.7°C 91% Calm Calm -- 29.82 in1009.8 mb 0.00 in0.0 mm 0.00 in0.0 mm 0.00 in0.0 mm
01:53 AM 64.6°F18.1°C 61.9°F16.6°C 91% Calm Calm -- 29.82 in1009.8 mb 0.00 in0.0 mm 0.00 in0.0 mm 0.00 in0.0 mm
02:03 AM 64.6°F18.1°C 61.9°F16.6°C 91% Calm Calm -- 29.82 in1009.8 mb 0.00 in0.0 mm 0.00 in0.0 mm 0.00 in0.0 mm
02:13 AM 64.4°F18.0°C 61.7°F16.5°C 91% Calm Calm -- 29.82 in1009.8 mb 0.00 in0.0 mm 0.00 in0.0 mm 0.00 in0.0 mm
02:23 AM 64.2°F17.9°C 61.5°F16.4°C 91% Calm Calm -- 29.82 in1009.8 mb 0.00 in0.0 mm 0.00 in0.0 mm 0.00 in0.0 mm
02:33 AM 64.2°F17.9°C 61.5°F16.4°C 91% Calm Calm -- 29.82 in1009.8 mb 0.00 in0.0 mm 0.00 in0.0 mm 0.00 in0.0 mm
02:43 AM 64.2°F17.9°C 61.5°F16.4°C 91% Calm Calm -- 29.82 in1009.8 mb 0.00 in0.0 mm 0.00 in0.0 mm 0.00 in0.0 mm
02:53 AM 64.2°F17.9°C 61.5°F16.4°C 91% Calm Calm -- 29.82 in1009.8 mb 0.00 in0.0 mm 0.00 in0.0 mm 0.00 in0.0 mm
03:03 AM 64.4°F18.0°C 61.7°F16.5°C 91% Calm Calm -- 29.81 in1009.5 mb 0.00 in0.0 mm 0.00 in0.0 mm 0.00 in0.0 mm
03:13 AM 64.6°F18.1°C 61.9°F16.6°C 91% Calm Calm -- 29.82 in1009.8 mb 0.00 in0.0 mm 0.00 in0.0 mm 0.00 in0.0 mm
03:23 AM 64.6°F18.1°C 61.9°F16.6°C 91% Calm Calm -- 29.81 in1009.5 mb 0.00 in0.0 mm 0.00 in0.0 mm 0.00 in0.0 mm
03:33 AM 64.2°F17.9°C 61.5°F16.4°C 91% Calm Calm -- 29.81 in1009.5 mb 0.00 in0.0 mm 0.00 in0.0 mm 0.00 in0.0 mm
03:43 AM 64.0°F17.8°C 61.3°F16.3°C 91% Calm Calm -- 29.81 in1009.5 mb 0.00 in0.0 mm 0.00 in0.0 mm 0.00 in0.0 mm
03:53 AM 63.7°F17.6°C 61.0°F16.1°C 91% Calm Calm -- 29.81 in1009.5 mb 0.00 in0.0 mm 0.00 in0.0 mm 0.00 in0.0 mm
04:03 AM 63.1°F17.3°C 60.8°F16.0°C 92% Calm Calm -- 29.81 in1009.5 mb 0.00 in0.0 mm 0.00 in0.0 mm 0.00 in0.0 mm
04:13 AM 63.0°F17.2°C 60.6°F15.9°C 92% Calm Calm -- 29.81 in1009.5 mb 0.00 in0.0 mm 0.00 in0.0 mm 0.00 in0.0 mm
04:23 AM 63.1°F17.3°C 60.8°F16.0°C 92% Calm Calm -- 29.81 in1009.5 mb 0.00 in0.0 mm 0.00 in0.0 mm 0.00 in0.0 mm
04:33 AM 63.0°F17.2°C 60.6°F15.9°C 92% Calm Calm -- 29.81 in1009.5 mb 0.00 in0.0 mm 0.00 in0.0 mm 0.00 in0.0 mm
04:43 AM 63.1°F17.3°C 61.2°F16.2°C 93% Calm Calm 3.0 mph4.8 kmh 29.80 in1009.1 mb 0.00 in0.0 mm 0.00 in0.0 mm 0.00 in0.0 mm
04:53 AM 63.3°F17.4°C 61.3°F16.3°C 93% 0.9 mph E1.4 kmh E 2.9 mph4.7 kmh 29.81 in1009.5 mb 0.00 in0.0 mm 0.00 in0.0 mm 0.00 in0.0 mm
05:03 AM 63.5°F17.5°C 61.5°F16.4°C 93% 0.9 mph ENE1.4 kmh ENE 2.9 mph4.7 kmh 29.81 in1009.5 mb 0.00 in0.0 mm 0.00 in0.0 mm 0.00 in0.0 mm
05:13 AM 63.3°F17.4°C 61.3°F16.3°C 93% Calm Calm 2.0 mph3.2 kmh 29.81 in1009.5 mb 0.00 in0.0 mm 0.00 in0.0 mm 0.00 in0.0 mm
05:23 AM 63.1°F17.3°C 61.2°F16.2°C 93% Calm Calm 2.0 mph3.2 kmh 29.81 in1009.5 mb 0.00 in0.0 mm 0.00 in0.0 mm 0.00 in0.0 mm
05:33 AM 63.3°F17.4°C 61.3°F16.3°C 93% Calm Calm -- 29.82 in1009.8 mb 0.00 in0.0 mm 0.00 in0.0 mm 0.00 in0.0 mm
05:43 AM 63.3°F17.4°C 61.5°F16.4°C 94% Calm Calm -- 29.82 in1009.8 mb 0.00 in0.0 mm 0.00 in0.0 mm 0.00 in0.0 mm
05:53 AM 63.1°F17.3°C 61.3°F16.3°C 94% Calm Calm -- 29.82 in1009.8 mb 0.00 in0.0 mm 0.00 in0.0 mm 0.00 in0.0 mm
06:03 AM 63.3°F17.4°C 61.5°F16.4°C 94% Calm Calm 2.0 mph3.2 kmh 29.82 in1009.8 mb 0.00 in0.0 mm 0.00 in0.0 mm 0.00 in0.0 mm
06:13 AM 63.5°F17.5°C 61.7°F16.5°C 94% Calm Calm 1.0 mph1.6 kmh 29.83 in1010.2 mb 0.00 in0.0 mm 0.00 in0.0 mm 0.00 in0.0 mm
06:24 AM 63.7°F17.6°C 61.9°F16.6°C 94% Calm Calm 2.0 mph3.2 kmh 29.83 in1010.2 mb 0.00 in0.0 mm 0.00 in0.0 mm 0.00 in0.0 mm
06:34 AM 63.7°F17.6°C 61.9°F16.6°C 94% Calm Calm 0.9 mph1.4 kmh 29.83 in1010.2 mb 0.00 in0.0 mm 0.00 in0.0 mm 0.00 in0.0 mm
06:44 AM 63.7°F17.6°C 61.9°F16.6°C 94% Calm Calm 2.0 mph3.2 kmh 29.84 in1010.5 mb 0.00 in0.0 mm 0.00 in0.0 mm 0.00 in0.0 mm
06:54 AM 63.7°F17.6°C 61.9°F16.6°C 94% Calm Calm -- 29.84 in1010.5 mb 0.00 in0.0 mm 0.00 in0.0 mm 0.00 in0.0 mm
07:04 AM 63.9°F17.7°C 62.1°F16.7°C 94% Calm Calm -- 29.84 in1010.5 mb 0.00 in0.0 mm 0.00 in0.0 mm 0.00 in0.0 mm
07:14 AM 63.7°F17.6°C 61.9°F16.6°C 94% Calm Calm -- 29.85 in1010.8 mb 0.00 in0.0 mm 0.00 in0.0 mm 0.00 in0.0 mm
07:24 AM 63.9°F17.7°C 62.1°F16.7°C 94% Calm Calm 2.0 mph3.2 kmh 29.85 in1010.8 mb 0.00 in0.0 mm 0.00 in0.0 mm 0.00 in0.0 mm
07:34 AM 63.9°F17.7°C 62.1°F16.7°C 94% 0.9 mph E1.4 kmh E 3.0 mph4.8 kmh 29.86 in1011.2 mb 0.00 in0.0 mm 0.00 in0.0 mm 0.00 in0.0 mm
07:44 AM 63.9°F17.7°C 61.9°F16.6°C 93% 0.9 mph ENE1.4 kmh ENE 3.0 mph4.8 kmh 29.86 in1011.2 mb 0.00 in0.0 mm 0.00 in0.0 mm 0.00 in0.0 mm
07:54 AM 64.2°F17.9°C 62.2°F16.8°C 93% Calm Calm 2.0 mph3.2 kmh 29.86 in1011.2 mb 0.00 in0.0 mm 0.00 in0.0 mm 0.00 in0.0 mm
08:04 AM 64.6°F18.1°C 62.4°F16.9°C 93% Calm Calm 0.9 mph1.4 kmh 29.87 in1011.5 mb 0.00 in0.0 mm 0.00 in0.0 mm 0.00 in0.0 mm
08:14 AM 64.8°F18.2°C 62.6°F17.0°C 93% 0.9 mph NE1.4 kmh NE 2.9 mph4.7 kmh 29.87 in1011.5 mb 0.00 in0.0 mm 0.00 in0.0 mm 0.00 in0.0 mm
08:24 AM 65.1°F18.4°C 62.8°F17.1°C 92% Calm Calm 2.0 mph3.2 kmh 29.87 in1011.5 mb 0.00 in0.0 mm 0.00 in0.0 mm 0.00 in0.0 mm
08:34 AM 65.7°F18.7°C 63.3°F17.4°C 92% Calm Calm 0.9 mph1.4 kmh 29.87 in1011.5 mb 0.00 in0.0 mm 0.00 in0.0 mm 0.00 in0.0 mm
08:44 AM 66.0°F18.9°C 63.7°F17.6°C 92% Calm Calm 0.9 mph1.4 kmh 29.88 in1011.9 mb 0.00 in0.0 mm 0.00 in0.0 mm 0.00 in0.0 mm
08:54 AM 66.4°F19.1°C 63.7°F17.6°C 91% Calm Calm -- 29.87 in1011.5 mb 0.00 in0.0 mm 0.00 in0.0 mm 0.00 in0.0 mm
09:04 AM 66.6°F19.2°C 63.9°F17.7°C 91% 0.9 mph NE1.4 kmh NE 2.9 mph4.7 kmh 29.88 in1011.9 mb 0.00 in0.0 mm 0.00 in0.0 mm 0.00 in0.0 mm
09:14 AM 66.9°F19.4°C 63.9°F17.7°C 90% 0.9 mph NE1.4 kmh NE 2.0 mph3.2 kmh 29.87 in1011.5 mb 0.00 in0.0 mm 0.00 in0.0 mm 0.00 in0.0 mm
09:24 AM 67.6°F19.8°C 64.2°F17.9°C 89% 0.9 mph NNE1.4 kmh NNE 2.9 mph4.7 kmh 29.87 in1011.5 mb 0.00 in0.0 mm 0.00 in0.0 mm 0.00 in0.0 mm
09:34 AM 68.2°F20.1°C 64.4°F18.0°C 88% 0.9 mph NNE1.4 kmh NNE 2.9 mph4.7 kmh 29.87 in1011.5 mb 0.00 in0.0 mm 0.00 in0.0 mm 0.00 in0.0 mm
09:44 AM 68.7°F20.4°C 64.8°F18.2°C 87% Calm Calm 2.9 mph4.7 kmh 29.87 in1011.5 mb 0.00 in0.0 mm 0.00 in0.0 mm 0.00 in0.0 mm
09:54 AM 69.4°F20.8°C 65.1°F18.4°C 86% Calm Calm 2.9 mph4.7 kmh 29.88 in1011.9 mb 0.00 in0.0 mm 0.00 in0.0 mm 0.00 in0.0 mm
10:04 AM 71.1°F21.7°C 65.7°F18.7°C 83% 0.9 mph N1.4 kmh N 4.0 mph6.4 kmh 29.87 in1011.5 mb 0.00 in0.0 mm 0.00 in0.0 mm 0.00 in0.0 mm
10:14 AM 70.9°F21.6°C 65.1°F18.4°C 82% 2.0 mph W3.2 kmh W 4.9 mph7.9 kmh 29.87 in1011.5 mb 0.00 in0.0 mm 0.00 in0.0 mm 0.00 in0.0 mm
10:24 AM 71.4°F21.9°C 65.3°F18.5°C 81% 0.9 mph ENE1.4 kmh ENE 5.0 mph8.0 kmh 29.87 in1011.5 mb 0.00 in0.0 mm 0.00 in0.0 mm 0.00 in0.0 mm
10:34 AM 72.1°F22.3°C 65.3°F18.5°C 79% 2.0 mph NNW3.2 kmh NNW 4.9 mph7.9 kmh 29.87 in1011.5 mb 0.00 in0.0 mm 0.00 in0.0 mm 0.00 in0.0 mm
10:44 AM 73.2°F22.9°C 66.0°F18.9°C 78% 0.9 mph W1.4 kmh W 4.9 mph7.9 kmh 29.86 in1011.2 mb 0.00 in0.0 mm 0.00 in0.0 mm 0.00 in0.0 mm
10:54 AM 74.1°F23.4°C 66.0°F18.9°C 76% 0.9 mph WSW1.4 kmh WSW 4.9 mph7.9 kmh 29.86 in1011.2 mb 0.00 in0.0 mm 0.00 in0.0 mm 0.00 in0.0 mm
11:04 AM 74.7°F23.7°C 66.2°F19.0°C 75% 2.0 mph NNE3.2 kmh NNE 8.1 mph13.0 kmh 29.85 in1010.8 mb 0.00 in0.0 mm 0.00 in0.0 mm 0.00 in0.0 mm
11:14 AM 75.2°F24.0°C 66.0°F18.9°C 73% 2.0 mph WNW3.2 kmh WNW 6.0 mph9.7 kmh 29.85 in1010.8 mb 0.00 in0.0 mm 0.00 in0.0 mm 0.00 in0.0 mm
11:24 AM 75.7°F24.3°C 66.0°F18.9°C 72% 2.0 mph SW3.2 kmh SW 4.9 mph7.9 kmh 29.85 in1010.8 mb 0.00 in0.0 mm 0.00 in0.0 mm 0.00 in0.0 mm
11:34 AM 77.2°F25.1°C 66.2°F19.0°C 69% 0.9 mph E1.4 kmh E 6.0 mph9.7 kmh 29.84 in1010.5 mb 0.00 in0.0 mm 0.00 in0.0 mm 0.00 in0.0 mm
11:44 AM 77.7°F25.4°C 66.7°F19.3°C 69% 2.0 mph WNW3.2 kmh WNW 9.0 mph14.5 kmh 29.84 in1010.5 mb 0.00 in0.0 mm 0.00 in0.0 mm 0.00 in0.0 mm
11:54 AM 77.5°F25.3°C 66.6°F19.2°C 69% 4.0 mph WNW6.4 kmh WNW 10.1 mph16.3 kmh 29.84 in1010.5 mb 0.00 in0.0 mm 0.00 in0.0 mm 0.00 in0.0 mm
12:04 PM 77.4°F25.2°C 66.7°F19.3°C 70% 4.0 mph NW6.4 kmh NW 8.9 mph14.3 kmh 29.83 in1010.2 mb 0.00 in0.0 mm 0.00 in0.0 mm 0.00 in0.0 mm
12:14 PM 77.9°F25.5°C 66.6°F19.2°C 68% 4.0 mph WSW6.4 kmh WSW 8.1 mph13.0 kmh 29.83 in1010.2 mb 0.00 in0.0 mm 0.00 in0.0 mm 0.00 in0.0 mm
12:24 PM 77.4°F25.2°C 66.7°F19.3°C 70% 4.9 mph WSW7.9 kmh WSW 11.0 mph17.7 kmh 29.83 in1010.2 mb 0.00 in0.0 mm 0.00 in0.0 mm 0.00 in0.0 mm
12:34 PM 76.6°F24.8°C 66.2°F19.0°C 70% 6.0 mph W9.7 kmh W 13.0 mph20.9 kmh 29.83 in1010.2 mb 0.00 in0.0 mm 0.00 in0.0 mm 0.00 in0.0 mm
12:44 PM 76.3°F24.6°C 66.6°F19.2°C 72% 8.1 mph NW13.0 kmh NW 14.1 mph22.7 kmh 29.82 in1009.8 mb 0.00 in0.0 mm 0.00 in0.0 mm 0.00 in0.0 mm
12:54 PM 76.3°F24.6°C 66.6°F19.2°C 72% 8.1 mph WSW13.0 kmh WSW 12.1 mph19.5 kmh 29.83 in1010.2 mb 0.00 in0.0 mm 0.00 in0.0 mm 0.00 in0.0 mm
01:04 PM 75.7°F24.3°C 66.4°F19.1°C 73% 8.1 mph W13.0 kmh W 14.1 mph22.7 kmh 29.82 in1009.8 mb 0.00 in0.0 mm 0.00 in0.0 mm 0.00 in0.0 mm
01:14 PM 75.6°F24.2°C 66.4°F19.1°C 73% 6.9 mph W11.1 kmh W 12.1 mph19.5 kmh 29.82 in1009.8 mb 0.00 in0.0 mm 0.00 in0.0 mm 0.00 in0.0 mm
01:24 PM 75.7°F24.3°C 66.0°F18.9°C 72% 6.9 mph W11.1 kmh W 11.0 mph17.7 kmh 29.81 in1009.5 mb 0.00 in0.0 mm 0.00 in0.0 mm 0.00 in0.0 mm
01:34 PM 75.4°F24.1°C 65.7°F18.7°C 72% 6.0 mph N9.7 kmh N 11.0 mph17.7 kmh 29.81 in1009.5 mb 0.00 in0.0 mm 0.00 in0.0 mm 0.00 in0.0 mm
01:44 PM 75.6°F24.2°C 65.8°F18.8°C 72% 4.9 mph SW7.9 kmh SW 11.0 mph17.7 kmh 29.81 in1009.5 mb 0.00 in0.0 mm 0.00 in0.0 mm 0.00 in0.0 mm
01:54 PM 75.4°F24.1°C 65.7°F18.7°C 72% 6.9 mph W11.1 kmh W 14.1 mph22.7 kmh 29.80 in1009.1 mb 0.00 in0.0 mm 0.00 in0.0 mm 0.00 in0.0 mm
02:04 PM 75.0°F23.9°C 65.8°F18.8°C 73% 6.0 mph W9.7 kmh W 14.1 mph22.7 kmh 29.80 in1009.1 mb 0.00 in0.0 mm 0.00 in0.0 mm 0.00 in0.0 mm
02:14 PM 74.7°F23.7°C 65.5°F18.6°C 73% 6.0 mph NW9.7 kmh NW 12.1 mph19.5 kmh 29.80 in1009.1 mb 0.00 in0.0 mm 0.00 in0.0 mm 0.00 in0.0 mm
02:24 PM 74.7°F23.7°C 65.5°F18.6°C 73% 6.0 mph WSW9.7 kmh WSW 12.1 mph19.5 kmh 29.79 in1008.8 mb 0.00 in0.0 mm 0.00 in0.0 mm 0.00 in0.0 mm
02:34 PM 74.1°F23.4°C 64.9°F18.3°C 73% 6.0 mph WSW9.7 kmh WSW 12.1 mph19.5 kmh 29.79 in1008.8 mb 0.00 in0.0 mm 0.00 in0.0 mm 0.00 in0.0 mm
02:44 PM 74.3°F23.5°C 65.5°F18.6°C 74% 4.9 mph ENE7.9 kmh ENE 11.0 mph17.7 kmh 29.79 in1008.8 mb 0.00 in0.0 mm 0.00 in0.0 mm 0.00 in0.0 mm
02:54 PM 74.3°F23.5°C 65.1°F18.4°C 73% 4.9 mph W7.9 kmh W 11.0 mph17.7 kmh 29.78 in1008.5 mb 0.00 in0.0 mm 0.00 in0.0 mm 0.00 in0.0 mm
03:04 PM 74.1°F23.4°C 64.9°F18.3°C 73% 4.9 mph SW7.9 kmh SW 12.1 mph19.5 kmh 29.78 in1008.5 mb 0.00 in0.0 mm 0.00 in0.0 mm 0.00 in0.0 mm
03:14 PM 74.1°F23.4°C 64.9°F18.3°C 73% 4.9 mph SW7.9 kmh SW 11.0 mph17.7 kmh 29.78 in1008.5 mb 0.00 in0.0 mm 0.00 in0.0 mm 0.00 in0.0 mm
03:24 PM 73.8°F23.2°C 64.9°F18.3°C 74% 6.0 mph WSW9.7 kmh WSW 12.1 mph19.5 kmh 29.78 in1008.5 mb 0.00 in0.0 mm 0.00 in0.0 mm 0.00 in0.0 mm
03:34 PM 73.6°F23.1°C 64.8°F18.2°C 74% 6.0 mph W9.7 kmh W 11.0 mph17.7 kmh 29.77 in1008.1 mb 0.00 in0.0 mm 0.00 in0.0 mm 0.00 in0.0 mm
03:44 PM 73.9°F23.3°C 65.1°F18.4°C 74% 4.9 mph WSW7.9 kmh WSW 11.0 mph17.7 kmh 29.77 in1008.1 mb 0.00 in0.0 mm 0.00 in0.0 mm 0.00 in0.0 mm
03:54 PM 72.7°F22.6°C 64.2°F17.9°C 75% 6.9 mph WSW11.1 kmh WSW 11.0 mph17.7 kmh 29.77 in1008.1 mb 0.00 in0.0 mm 0.00 in0.0 mm 0.00 in0.0 mm
04:04 PM 72.7°F22.6°C 64.2°F17.9°C 75% 4.9 mph WSW7.9 kmh WSW 10.1 mph16.3 kmh 29.77 in1008.1 mb 0.00 in0.0 mm 0.00 in0.0 mm 0.00 in0.0 mm
04:14 PM 72.1°F22.3°C 64.2°F17.9°C 76% 6.0 mph WNW9.7 kmh WNW 14.1 mph22.7 kmh 29.77 in1008.1 mb 0.00 in0.0 mm 0.00 in0.0 mm 0.00 in0.0 mm
04:24 PM 72.0°F22.2°C 64.4°F18.0°C 77% 4.9 mph W7.9 kmh W 8.9 mph14.3 kmh 29.77 in1008.1 mb 0.00 in0.0 mm 0.00 in0.0 mm 0.00 in0.0 mm
04:34 PM 72.0°F22.2°C 64.0°F17.8°C 76% 4.9 mph NW7.9 kmh NW 8.9 mph14.3 kmh 29.77 in1008.1 mb 0.00 in0.0 mm 0.00 in0.0 mm 0.00 in0.0 mm
04:44 PM 71.4°F21.9°C 63.9°F17.7°C 77% 4.9 mph W7.9 kmh W 8.9 mph14.3 kmh 29.77 in1008.1 mb 0.00 in0.0 mm 0.00 in0.0 mm 0.00 in0.0 mm
04:54 PM 71.2°F21.8°C 63.7°F17.6°C 77% 4.9 mph S7.9 kmh S 8.1 mph13.0 kmh 29.76 in1007.8 mb 0.00 in0.0 mm 0.00 in0.0 mm 0.00 in0.0 mm
05:04 PM 70.5°F21.4°C 63.7°F17.6°C 79% 4.9 mph NW7.9 kmh NW 11.0 mph17.7 kmh 29.77 in1008.1 mb 0.00 in0.0 mm 0.00 in0.0 mm 0.00 in0.0 mm
05:14 PM 70.9°F21.6°C 64.0°F17.8°C 79% 4.0 mph W6.4 kmh W 8.9 mph14.3 kmh 29.76 in1007.8 mb 0.00 in0.0 mm 0.00 in0.0 mm 0.00 in0.0 mm
05:24 PM 70.2°F21.2°C 63.3°F17.4°C 79% 4.0 mph SW6.4 kmh SW 10.1 mph16.3 kmh 29.77 in1008.1 mb 0.00 in0.0 mm 0.00 in0.0 mm 0.00 in0.0 mm
05:34 PM 70.2°F21.2°C 63.0°F17.2°C 78% 2.9 mph SW4.7 kmh SW 6.9 mph11.1 kmh 29.76 in1007.8 mb 0.00 in0.0 mm 0.00 in0.0 mm 0.00 in0.0 mm
05:44 PM 70.2°F21.2°C 63.3°F17.4°C 79% 2.9 mph SW4.7 kmh SW 6.9 mph11.1 kmh 29.76 in1007.8 mb 0.00 in0.0 mm 0.00 in0.0 mm 0.00 in0.0 mm
05:54 PM 70.3°F21.3°C 63.5°F17.5°C 79% 2.9 mph S4.7 kmh S 8.1 mph13.0 kmh 29.76 in1007.8 mb 0.00 in0.0 mm 0.00 in0.0 mm 0.00 in0.0 mm
06:04 PM 70.2°F21.2°C 63.3°F17.4°C 79% 2.0 mph WSW3.2 kmh WSW 7.0 mph11.3 kmh 29.76 in1007.8 mb 0.00 in0.0 mm 0.00 in0.0 mm 0.00 in0.0 mm
06:14 PM 69.4°F20.8°C 62.6°F17.0°C 79% 2.0 mph SW3.2 kmh SW 6.0 mph9.7 kmh 29.76 in1007.8 mb 0.00 in0.0 mm 0.00 in0.0 mm 0.00 in0.0 mm
06:24 PM 68.4°F20.2°C 62.6°F17.0°C 82% 2.9 mph WSW4.7 kmh WSW 6.9 mph11.1 kmh 29.77 in1008.1 mb 0.00 in0.0 mm 0.00 in0.0 mm 0.00 in0.0 mm
06:34 PM 67.6°F19.8°C 62.2°F16.8°C 83% 2.0 mph SW3.2 kmh SW 6.0 mph9.7 kmh 29.77 in1008.1 mb 0.00 in0.0 mm 0.00 in0.0 mm 0.00 in0.0 mm
06:44 PM 67.3°F19.6°C 62.2°F16.8°C 84% 0.9 mph SW1.4 kmh SW 4.0 mph6.4 kmh 29.77 in1008.1 mb 0.00 in0.0 mm 0.00 in0.0 mm 0.00 in0.0 mm
06:54 PM 66.9°F19.4°C 61.9°F16.6°C 84% 0.9 mph WSW1.4 kmh WSW 5.0 mph8.0 kmh 29.77 in1008.1 mb 0.00 in0.0 mm 0.00 in0.0 mm 0.00 in0.0 mm
07:04 PM 66.7°F19.3°C 62.1°F16.7°C 85% 0.9 mph WSW1.4 kmh WSW 2.9 mph4.7 kmh 29.77 in1008.1 mb 0.00 in0.0 mm 0.00 in0.0 mm 0.00 in0.0 mm
07:14 PM 66.6°F19.2°C 61.9°F16.6°C 85% 0.9 mph SW1.4 kmh SW 4.0 mph6.4 kmh 29.77 in1008.1 mb 0.00 in0.0 mm 0.00 in0.0 mm 0.00 in0.0 mm
07:24 PM 66.4°F19.1°C 62.1°F16.7°C 86% 0.9 mph SW1.4 kmh SW 2.9 mph4.7 kmh 29.77 in1008.1 mb 0.00 in0.0 mm 0.00 in0.0 mm 0.00 in0.0 mm
07:34 PM 66.2°F19.0°C 61.9°F16.6°C 86% Calm Calm 2.0 mph3.2 kmh 29.77 in1008.1 mb 0.00 in0.0 mm 0.00 in0.0 mm 0.00 in0.0 mm
07:44 PM 66.2°F19.0°C 62.2°F16.8°C 87% Calm Calm 2.0 mph3.2 kmh 29.78 in1008.5 mb 0.00 in0.0 mm 0.00 in0.0 mm 0.00 in0.0 mm
07:54 PM 66.0°F18.9°C 62.1°F16.7°C 87% 0.9 mph WSW1.4 kmh WSW 3.0 mph4.8 kmh 29.78 in1008.5 mb 0.00 in0.0 mm 0.00 in0.0 mm 0.00 in0.0 mm
08:04 PM 66.0°F18.9°C 62.1°F16.7°C 87% 0.9 mph SE1.4 kmh SE 2.9 mph4.7 kmh 29.78 in1008.5 mb 0.00 in0.0 mm 0.00 in0.0 mm 0.00 in0.0 mm
08:14 PM 66.0°F18.9°C 62.1°F16.7°C 87% Calm Calm 2.0 mph3.2 kmh 29.78 in1008.5 mb 0.00 in0.0 mm 0.00 in0.0 mm 0.00 in0.0 mm
08:24 PM 66.0°F18.9°C 62.1°F16.7°C 87% Calm Calm 2.0 mph3.2 kmh 29.79 in1008.8 mb 0.00 in0.0 mm 0.00 in0.0 mm 0.00 in0.0 mm
08:34 PM 66.2°F19.0°C 62.2°F16.8°C 87% 0.9 mph W1.4 kmh W 3.0 mph4.8 kmh 29.79 in1008.8 mb 0.00 in0.0 mm 0.00 in0.0 mm 0.00 in0.0 mm
08:44 PM 66.4°F19.1°C 62.4°F16.9°C 87% 0.9 mph WSW1.4 kmh WSW 2.9 mph4.7 kmh 29.79 in1008.8 mb 0.00 in0.0 mm 0.00 in0.0 mm 0.00 in0.0 mm
08:54 PM 66.4°F19.1°C 62.4°F16.9°C 87% Calm Calm 4.9 mph7.9 kmh 29.79 in1008.8 mb 0.00 in0.0 mm 0.00 in0.0 mm 0.00 in0.0 mm
09:04 PM 66.2°F19.0°C 62.2°F16.8°C 87% 2.0 mph W3.2 kmh W 4.0 mph6.4 kmh 29.79 in1008.8 mb 0.00 in0.0 mm 0.00 in0.0 mm 0.00 in0.0 mm
09:14 PM 66.2°F19.0°C 62.2°F16.8°C 87% 0.9 mph SW1.4 kmh SW 2.9 mph4.7 kmh 29.80 in1009.1 mb 0.00 in0.0 mm 0.00 in0.0 mm 0.00 in0.0 mm
09:24 PM 66.2°F19.0°C 62.2°F16.8°C 87% Calm Calm -- 29.80 in1009.1 mb 0.00 in0.0 mm 0.00 in0.0 mm 0.00 in0.0 mm
09:34 PM 66.0°F18.9°C 62.1°F16.7°C 87% Calm Calm 2.9 mph4.7 kmh 29.80 in1009.1 mb 0.00 in0.0 mm 0.00 in0.0 mm 0.00 in0.0 mm
09:44 PM 66.2°F19.0°C 62.2°F16.8°C 87% Calm Calm 2.0 mph3.2 kmh 29.80 in1009.1 mb 0.00 in0.0 mm 0.00 in0.0 mm 0.00 in0.0 mm
09:54 PM 66.2°F19.0°C 62.2°F16.8°C 87% Calm Calm -- 29.80 in1009.1 mb 0.00 in0.0 mm 0.00 in0.0 mm 0.00 in0.0 mm
10:04 PM 66.2°F19.0°C 62.2°F16.8°C 87% Calm Calm -- 29.80 in1009.1 mb 0.00 in0.0 mm 0.00 in0.0 mm 0.00 in0.0 mm
10:14 PM 66.4°F19.1°C 62.4°F16.9°C 87% Calm Calm -- 29.80 in1009.1 mb 0.00 in0.0 mm 0.00 in0.0 mm 0.00 in0.0 mm
10:24 PM 66.4°F19.1°C 62.4°F16.9°C 87% Calm Calm -- 29.80 in1009.1 mb 0.00 in0.0 mm 0.00 in0.0 mm 0.00 in0.0 mm
10:34 PM 66.4°F19.1°C 62.4°F16.9°C 87% 0.9 mph WSW1.4 kmh WSW 2.9 mph4.7 kmh 29.81 in1009.5 mb 0.00 in0.0 mm 0.00 in0.0 mm 0.00 in0.0 mm
10:44 PM 66.4°F19.1°C 62.4°F16.9°C 87% Calm Calm 2.0 mph3.2 kmh 29.81 in1009.5 mb 0.00 in0.0 mm 0.00 in0.0 mm 0.00 in0.0 mm
10:54 PM 66.4°F19.1°C 62.4°F16.9°C 87% Calm Calm 2.0 mph3.2 kmh 29.81 in1009.5 mb 0.00 in0.0 mm 0.00 in0.0 mm 0.00 in0.0 mm
11:04 PM 66.2°F19.0°C 62.2°F16.8°C 87% 0.9 mph ENE1.4 kmh ENE 4.0 mph6.4 kmh 29.81 in1009.5 mb 0.00 in0.0 mm 0.00 in0.0 mm 0.00 in0.0 mm
11:14 PM 66.2°F19.0°C 62.2°F16.8°C 87% 0.9 mph E1.4 kmh E 2.9 mph4.7 kmh 29.81 in1009.5 mb 0.00 in0.0 mm 0.00 in0.0 mm 0.00 in0.0 mm
11:24 PM 66.2°F19.0°C 62.2°F16.8°C 87% 0.9 mph ENE1.4 kmh ENE 2.0 mph3.2 kmh 29.81 in1009.5 mb 0.00 in0.0 mm 0.00 in0.0 mm 0.00 in0.0 mm
11:34 PM 66.2°F19.0°C 62.2°F16.8°C 87% 0.9 mph ENE1.4 kmh ENE 2.0 mph3.2 kmh 29.80 in1009.1 mb 0.00 in0.0 mm 0.00 in0.0 mm 0.00 in0.0 mm
11:44 PM 66.2°F19.0°C 62.2°F16.8°C 87% 0.9 mph SE1.4 kmh SE 3.0 mph4.8 kmh 29.81 in1009.5 mb 0.00 in0.0 mm 0.00 in0.0 mm 0.00 in0.0 mm
11:54 PM 66.0°F18.9°C 62.1°F16.7°C 87% Calm Calm 0.9 mph1.4 kmh 29.80 in1009.1 mb 0.00 in0.0 mm 0.00 in0.0 mm 0.00 in0.0 mm